sensor_id;sensor_type;location;lat;lon;timestamp;P1;durP1;ratioP1;P2;durP2;ratioP2
8312;SDS011;4194;43.408;24.626;2022-10-29T00:01:20;7.47;;;5.07;;
8312;SDS011;4194;43.408;24.626;2022-10-29T00:03:46;9.57;;;4.43;;
8312;SDS011;4194;43.408;24.626;2022-10-29T00:06:12;6.93;;;4.60;;
8312;SDS011;4194;43.408;24.626;2022-10-29T00:08:39;8.30;;;4.30;;
8312;SDS011;4194;43.408;24.626;2022-10-29T00:11:06;8.20;;;4.33;;
8312;SDS011;4194;43.408;24.626;2022-10-29T00:13:34;10.57;;;4.20;;
8312;SDS011;4194;43.408;24.626;2022-10-29T00:16:19;8.02;;;4.80;;
8312;SDS011;4194;43.408;24.626;2022-10-29T00:18:46;6.77;;;4.30;;
8312;SDS011;4194;43.408;24.626;2022-10-29T00:21:13;11.33;;;4.80;;
8312;SDS011;4194;43.408;24.626;2022-10-29T00:23:40;6.33;;;3.50;;
8312;SDS011;4194;43.408;24.626;2022-10-29T00:26:06;6.77;;;3.63;;
8312;SDS011;4194;43.408;24.626;2022-10-29T00:28:32;6.90;;;3.87;;
8312;SDS011;4194;43.408;24.626;2022-10-29T00:31:05;5.07;;;3.50;;
8312;SDS011;4194;43.408;24.626;2022-10-29T00:33:32;5.53;;;4.00;;
8312;SDS011;4194;43.408;24.626;2022-10-29T00:35:59;7.97;;;3.70;;
8312;SDS011;4194;43.408;24.626;2022-10-29T00:38:30;4.43;;;3.00;;
8312;SDS011;4194;43.408;24.626;2022-10-29T00:40:56;5.00;;;3.67;;
8312;SDS011;4194;43.408;24.626;2022-10-29T00:43:23;4.10;;;3.00;;
8312;SDS011;4194;43.408;24.626;2022-10-29T00:45:52;4.73;;;3.23;;
8312;SDS011;4194;43.408;24.626;2022-10-29T00:48:24;7.43;;;3.70;;
8312;SDS011;4194;43.408;24.626;2022-10-29T00:50:53;5.27;;;3.33;;
8312;SDS011;4194;43.408;24.626;2022-10-29T00:53:23;5.97;;;3.57;;
8312;SDS011;4194;43.408;24.626;2022-10-29T00:55:52;6.37;;;3.77;;
8312;SDS011;4194;43.408;24.626;2022-10-29T00:58:18;5.00;;;3.50;;
8312;SDS011;4194;43.408;24.626;2022-10-29T01:00:45;4.70;;;3.63;;
8312;SDS011;4194;43.408;24.626;2022-10-29T01:03:11;3.50;;;3.20;;
8312;SDS011;4194;43.408;24.626;2022-10-29T01:05:36;5.10;;;3.57;;
8312;SDS011;4194;43.408;24.626;2022-10-29T01:08:03;5.27;;;2.97;;
8312;SDS011;4194;43.408;24.626;2022-10-29T01:10:42;4.00;;;3.40;;
8312;SDS011;4194;43.408;24.626;2022-10-29T01:13:26;7.03;;;3.37;;
8312;SDS011;4194;43.408;24.626;2022-10-29T01:15:58;4.77;;;3.30;;
8312;SDS011;4194;43.408;24.626;2022-10-29T01:30:33;5.47;;;2.93;;
8312;SDS011;4194;43.408;24.626;2022-10-29T01:35:36;6.93;;;3.23;;
8312;SDS011;4194;43.408;24.626;2022-10-29T01:46:58;5.68;;;3.40;;
8312;SDS011;4194;43.408;24.626;2022-10-29T01:49:11;10.47;;;3.77;;
8312;SDS011;4194;43.408;24.626;2022-10-29T01:51:42;6.13;;;3.50;;
8312;SDS011;4194;43.408;24.626;2022-10-29T01:54:09;4.50;;;3.30;;
8312;SDS011;4194;43.408;24.626;2022-10-29T01:56:36;3.93;;;3.30;;
8312;SDS011;4194;43.408;24.626;2022-10-29T01:59:03;4.40;;;3.33;;
8312;SDS011;4194;43.408;24.626;2022-10-29T02:01:40;4.83;;;3.20;;
8312;SDS011;4194;43.408;24.626;2022-10-29T02:09:38;5.87;;;3.20;;
8312;SDS011;4194;43.408;24.626;2022-10-29T02:12:50;4.30;;;3.27;;
8312;SDS011;4194;43.408;24.626;2022-10-29T02:15:23;4.40;;;3.03;;
8312;SDS011;4194;43.408;24.626;2022-10-29T02:18:09;3.80;;;3.37;;
8312;SDS011;4194;43.408;24.626;2022-10-29T02:20:40;4.57;;;3.40;;
8312;SDS011;4194;43.408;24.626;2022-10-29T02:23:06;7.03;;;3.40;;
8312;SDS011;4194;43.408;24.626;2022-10-29T02:25:32;3.80;;;3.27;;
8312;SDS011;4194;43.408;24.626;2022-10-29T02:27:57;6.30;;;3.40;;
8312;SDS011;4194;43.408;24.626;2022-10-29T02:30:23;3.47;;;3.17;;
8312;SDS011;4194;43.408;24.626;2022-10-29T02:32:49;5.20;;;3.70;;
8312;SDS011;4194;43.408;24.626;2022-10-29T02:35:14;5.77;;;3.90;;
8312;SDS011;4194;43.408;24.626;2022-10-29T02:37:40;8.27;;;4.57;;
8312;SDS011;4194;43.408;24.626;2022-10-29T02:40:06;9.73;;;4.47;;
8312;SDS011;4194;43.408;24.626;2022-10-29T02:42:32;7.00;;;4.43;;
8312;SDS011;4194;43.408;24.626;2022-10-29T02:44:58;7.33;;;4.80;;
8312;SDS011;4194;43.408;24.626;2022-10-29T02:47:23;8.33;;;4.30;;
8312;SDS011;4194;43.408;24.626;2022-10-29T02:49:49;8.17;;;4.00;;
8312;SDS011;4194;43.408;24.626;2022-10-29T02:52:14;10.33;;;5.67;;
8312;SDS011;4194;43.408;24.626;2022-10-29T02:54:40;4.50;;;3.90;;
8312;SDS011;4194;43.408;24.626;2022-10-29T02:57:06;7.80;;;5.43;;
8312;SDS011;4194;43.408;24.626;2022-10-29T02:59:32;15.93;;;10.53;;
8312;SDS011;4194;43.408;24.626;2022-10-29T03:01:58;19.33;;;13.63;;
8312;SDS011;4194;43.408;24.626;2022-10-29T03:04:24;11.83;;;8.90;;
8312;SDS011;4194;43.408;24.626;2022-10-29T03:06:50;13.10;;;10.83;;
8312;SDS011;4194;43.408;24.626;2022-10-29T03:09:15;11.20;;;8.27;;
8312;SDS011;4194;43.408;24.626;2022-10-29T03:11:41;9.70;;;5.30;;
8312;SDS011;4194;43.408;24.626;2022-10-29T03:14:07;5.57;;;4.27;;
8312;SDS011;4194;43.408;24.626;2022-10-29T03:16:32;7.30;;;4.50;;
8312;SDS011;4194;43.408;24.626;2022-10-29T03:18:58;6.27;;;4.40;;
8312;SDS011;4194;43.408;24.626;2022-10-29T03:21:24;5.80;;;4.27;;
8312;SDS011;4194;43.408;24.626;2022-10-29T03:23:49;6.93;;;4.10;;
8312;SDS011;4194;43.408;24.626;2022-10-29T03:26:15;5.37;;;4.13;;
8312;SDS011;4194;43.408;24.626;2022-10-29T03:28:41;10.00;;;4.03;;
8312;SDS011;4194;43.408;24.626;2022-10-29T03:31:06;5.13;;;3.33;;
8312;SDS011;4194;43.408;24.626;2022-10-29T03:33:32;4.23;;;3.67;;
8312;SDS011;4194;43.408;24.626;2022-10-29T03:35:59;6.67;;;4.13;;
8312;SDS011;4194;43.408;24.626;2022-10-29T03:38:26;5.10;;;3.60;;
8312;SDS011;4194;43.408;24.626;2022-10-29T03:40:52;9.33;;;4.10;;
8312;SDS011;4194;43.408;24.626;2022-10-29T03:43:18;6.73;;;4.47;;
8312;SDS011;4194;43.408;24.626;2022-10-29T03:45:51;7.57;;;4.83;;
8312;SDS011;4194;43.408;24.626;2022-10-29T03:48:18;14.57;;;6.53;;
8312;SDS011;4194;43.408;24.626;2022-10-29T03:50:52;12.23;;;6.80;;
8312;SDS011;4194;43.408;24.626;2022-10-29T03:53:19;12.50;;;6.50;;
8312;SDS011;4194;43.408;24.626;2022-10-29T03:55:45;10.93;;;6.80;;
8312;SDS011;4194;43.408;24.626;2022-10-29T03:58:10;13.47;;;6.87;;
8312;SDS011;4194;43.408;24.626;2022-10-29T04:00:36;8.77;;;5.83;;
8312;SDS011;4194;43.408;24.626;2022-10-29T04:03:02;9.63;;;5.83;;
8312;SDS011;4194;43.408;24.626;2022-10-29T04:05:27;11.30;;;5.67;;
8312;SDS011;4194;43.408;24.626;2022-10-29T04:07:53;9.33;;;5.93;;
8312;SDS011;4194;43.408;24.626;2022-10-29T04:10:19;6.90;;;5.10;;
8312;SDS011;4194;43.408;24.626;2022-10-29T04:12:45;8.70;;;5.37;;
8312;SDS011;4194;43.408;24.626;2022-10-29T04:15:11;7.37;;;5.40;;
8312;SDS011;4194;43.408;24.626;2022-10-29T04:17:36;6.57;;;4.60;;
8312;SDS011;4194;43.408;24.626;2022-10-29T04:20:02;8.30;;;4.27;;
8312;SDS011;4194;43.408;24.626;2022-10-29T04:22:28;5.43;;;4.70;;
8312;SDS011;4194;43.408;24.626;2022-10-29T04:24:54;8.73;;;4.10;;
8312;SDS011;4194;43.408;24.626;2022-10-29T04:27:20;8.17;;;3.63;;
8312;SDS011;4194;43.408;24.626;2022-10-29T04:29:45;6.20;;;4.00;;
8312;SDS011;4194;43.408;24.626;2022-10-29T04:32:11;5.97;;;3.60;;
8312;SDS011;4194;43.408;24.626;2022-10-29T04:34:37;7.17;;;3.83;;
8312;SDS011;4194;43.408;24.626;2022-10-29T04:37:02;10.77;;;4.47;;
8312;SDS011;4194;43.408;24.626;2022-10-29T04:39:28;7.00;;;4.37;;
8312;SDS011;4194;43.408;24.626;2022-10-29T04:41:54;4.93;;;4.30;;
8312;SDS011;4194;43.408;24.626;2022-10-29T04:44:20;5.47;;;3.60;;
8312;SDS011;4194;43.408;24.626;2022-10-29T04:46:46;7.60;;;3.47;;
8312;SDS011;4194;43.408;24.626;2022-10-29T04:49:11;7.87;;;4.17;;
8312;SDS011;4194;43.408;24.626;2022-10-29T04:51:37;6.53;;;4.27;;
8312;SDS011;4194;43.408;24.626;2022-10-29T04:54:03;18.13;;;5.03;;
8312;SDS011;4194;43.408;24.626;2022-10-29T04:56:29;9.97;;;4.40;;
8312;SDS011;4194;43.408;24.626;2022-10-29T04:58:55;9.43;;;4.83;;
8312;SDS011;4194;43.408;24.626;2022-10-29T05:01:20;10.40;;;4.80;;
8312;SDS011;4194;43.408;24.626;2022-10-29T05:03:46;7.03;;;4.60;;
8312;SDS011;4194;43.408;24.626;2022-10-29T05:06:12;7.77;;;4.93;;
8312;SDS011;4194;43.408;24.626;2022-10-29T05:08:37;9.83;;;4.87;;
8312;SDS011;4194;43.408;24.626;2022-10-29T05:11:03;12.30;;;4.93;;
8312;SDS011;4194;43.408;24.626;2022-10-29T05:13:29;7.97;;;4.43;;
8312;SDS011;4194;43.408;24.626;2022-10-29T05:15:56;9.00;;;5.40;;
8312;SDS011;4194;43.408;24.626;2022-10-29T05:18:21;7.43;;;4.97;;
8312;SDS011;4194;43.408;24.626;2022-10-29T05:20:47;11.17;;;5.40;;
8312;SDS011;4194;43.408;24.626;2022-10-29T05:23:16;9.40;;;5.40;;
8312;SDS011;4194;43.408;24.626;2022-10-29T05:25:41;6.60;;;5.17;;
8312;SDS011;4194;43.408;24.626;2022-10-29T05:28:11;8.13;;;5.50;;
8312;SDS011;4194;43.408;24.626;2022-10-29T05:30:39;10.50;;;5.17;;
8312;SDS011;4194;43.408;24.626;2022-10-29T05:33:09;11.07;;;5.73;;
8312;SDS011;4194;43.408;24.626;2022-10-29T05:35:35;11.63;;;5.67;;
8312;SDS011;4194;43.408;24.626;2022-10-29T05:38:02;8.83;;;5.53;;
8312;SDS011;4194;43.408;24.626;2022-10-29T05:40:28;10.37;;;5.77;;
8312;SDS011;4194;43.408;24.626;2022-10-29T05:42:54;10.10;;;5.90;;
8312;SDS011;4194;43.408;24.626;2022-10-29T05:45:20;11.07;;;6.20;;
8312;SDS011;4194;43.408;24.626;2022-10-29T05:47:46;10.77;;;5.63;;
8312;SDS011;4194;43.408;24.626;2022-10-29T05:50:12;7.83;;;5.60;;
8312;SDS011;4194;43.408;24.626;2022-10-29T05:52:38;11.23;;;5.57;;
8312;SDS011;4194;43.408;24.626;2022-10-29T05:55:04;9.50;;;6.07;;
8312;SDS011;4194;43.408;24.626;2022-10-29T05:57:31;11.23;;;6.00;;
8312;SDS011;4194;43.408;24.626;2022-10-29T05:59:56;10.87;;;6.43;;
8312;SDS011;4194;43.408;24.626;2022-10-29T06:02:22;7.03;;;5.50;;
8312;SDS011;4194;43.408;24.626;2022-10-29T06:04:48;14.17;;;7.43;;
8312;SDS011;4194;43.408;24.626;2022-10-29T06:07:14;10.20;;;6.13;;
8312;SDS011;4194;43.408;24.626;2022-10-29T06:09:40;10.43;;;5.93;;
8312;SDS011;4194;43.408;24.626;2022-10-29T06:12:05;13.37;;;8.53;;
8312;SDS011;4194;43.408;24.626;2022-10-29T06:14:31;15.27;;;6.93;;
8312;SDS011;4194;43.408;24.626;2022-10-29T06:16:57;14.13;;;7.60;;
8312;SDS011;4194;43.408;24.626;2022-10-29T06:19:22;11.83;;;6.80;;
8312;SDS011;4194;43.408;24.626;2022-10-29T06:21:48;12.77;;;7.60;;
8312;SDS011;4194;43.408;24.626;2022-10-29T06:24:14;19.47;;;7.80;;
8312;SDS011;4194;43.408;24.626;2022-10-29T06:26:39;15.43;;;8.80;;
8312;SDS011;4194;43.408;24.626;2022-10-29T06:29:05;19.80;;;9.00;;
8312;SDS011;4194;43.408;24.626;2022-10-29T06:31:31;16.90;;;8.87;;
8312;SDS011;4194;43.408;24.626;2022-10-29T06:33:57;19.70;;;9.73;;
8312;SDS011;4194;43.408;24.626;2022-10-29T06:36:22;20.27;;;10.83;;
8312;SDS011;4194;43.408;24.626;2022-10-29T06:38:48;24.77;;;12.60;;
8312;SDS011;4194;43.408;24.626;2022-10-29T06:41:14;20.77;;;11.13;;
8312;SDS011;4194;43.408;24.626;2022-10-29T06:43:40;25.47;;;12.30;;
8312;SDS011;4194;43.408;24.626;2022-10-29T06:46:06;25.37;;;11.63;;
8312;SDS011;4194;43.408;24.626;2022-10-29T06:48:31;23.17;;;12.10;;
8312;SDS011;4194;43.408;24.626;2022-10-29T06:50:58;21.73;;;12.87;;
8312;SDS011;4194;43.408;24.626;2022-10-29T06:53:24;20.83;;;12.87;;
8312;SDS011;4194;43.408;24.626;2022-10-29T06:55:50;28.27;;;14.77;;
8312;SDS011;4194;43.408;24.626;2022-10-29T06:58:16;20.40;;;13.50;;
8312;SDS011;4194;43.408;24.626;2022-10-29T07:00:43;26.27;;;14.10;;
8312;SDS011;4194;43.408;24.626;2022-10-29T07:03:17;21.80;;;12.80;;
8312;SDS011;4194;43.408;24.626;2022-10-29T07:05:43;20.93;;;12.53;;
8312;SDS011;4194;43.408;24.626;2022-10-29T07:08:10;23.30;;;12.83;;
8312;SDS011;4194;43.408;24.626;2022-10-29T07:10:36;23.67;;;13.63;;
8312;SDS011;4194;43.408;24.626;2022-10-29T07:13:01;24.67;;;14.13;;
8312;SDS011;4194;43.408;24.626;2022-10-29T07:15:27;25.40;;;14.60;;
8312;SDS011;4194;43.408;24.626;2022-10-29T07:18:04;20.90;;;13.17;;
8312;SDS011;4194;43.408;24.626;2022-10-29T07:20:32;25.17;;;13.27;;
8312;SDS011;4194;43.408;24.626;2022-10-29T07:23:02;24.47;;;13.87;;
8312;SDS011;4194;43.408;24.626;2022-10-29T07:25:28;21.07;;;12.97;;
8312;SDS011;4194;43.408;24.626;2022-10-29T07:27:54;22.57;;;13.20;;
8312;SDS011;4194;43.408;24.626;2022-10-29T07:30:26;22.40;;;12.87;;
8312;SDS011;4194;43.408;24.626;2022-10-29T07:32:51;24.77;;;11.97;;
8312;SDS011;4194;43.408;24.626;2022-10-29T07:35:17;16.43;;;10.63;;
8312;SDS011;4194;43.408;24.626;2022-10-29T07:37:43;20.33;;;10.50;;
8312;SDS011;4194;43.408;24.626;2022-10-29T07:40:09;18.03;;;9.00;;
8312;SDS011;4194;43.408;24.626;2022-10-29T07:42:35;15.87;;;8.70;;
8312;SDS011;4194;43.408;24.626;2022-10-29T07:45:01;18.03;;;8.73;;
8312;SDS011;4194;43.408;24.626;2022-10-29T07:47:26;15.00;;;7.63;;
8312;SDS011;4194;43.408;24.626;2022-10-29T07:49:52;12.53;;;8.00;;
8312;SDS011;4194;43.408;24.626;2022-10-29T07:52:17;11.27;;;7.70;;
8312;SDS011;4194;43.408;24.626;2022-10-29T07:54:43;11.73;;;8.47;;
8312;SDS011;4194;43.408;24.626;2022-10-29T07:57:09;13.43;;;7.43;;
8312;SDS011;4194;43.408;24.626;2022-10-29T07:59:34;14.90;;;8.93;;
8312;SDS011;4194;43.408;24.626;2022-10-29T08:02:00;19.30;;;9.47;;
8312;SDS011;4194;43.408;24.626;2022-10-29T08:04:26;14.57;;;7.30;;
8312;SDS011;4194;43.408;24.626;2022-10-29T08:06:51;10.37;;;6.67;;
8312;SDS011;4194;43.408;24.626;2022-10-29T08:09:17;11.77;;;7.50;;
8312;SDS011;4194;43.408;24.626;2022-10-29T08:11:43;10.00;;;5.90;;
8312;SDS011;4194;43.408;24.626;2022-10-29T08:14:08;7.83;;;5.80;;
8312;SDS011;4194;43.408;24.626;2022-10-29T08:16:34;9.60;;;5.57;;
8312;SDS011;4194;43.408;24.626;2022-10-29T08:18:59;10.17;;;6.03;;
8312;SDS011;4194;43.408;24.626;2022-10-29T08:21:25;10.50;;;6.70;;
8312;SDS011;4194;43.408;24.626;2022-10-29T08:23:51;24.20;;;7.03;;
8312;SDS011;4194;43.408;24.626;2022-10-29T08:26:18;9.67;;;5.97;;
8312;SDS011;4194;43.408;24.626;2022-10-29T08:28:44;12.40;;;7.77;;
8312;SDS011;4194;43.408;24.626;2022-10-29T08:31:10;15.57;;;8.27;;
8312;SDS011;4194;43.408;24.626;2022-10-29T08:33:35;12.87;;;8.03;;
8312;SDS011;4194;43.408;24.626;2022-10-29T08:36:01;12.03;;;8.07;;
8312;SDS011;4194;43.408;24.626;2022-10-29T08:38:27;15.10;;;7.57;;
8312;SDS011;4194;43.408;24.626;2022-10-29T08:41:00;14.17;;;7.50;;
8312;SDS011;4194;43.408;24.626;2022-10-29T08:46:16;10.63;;;6.50;;
8312;SDS011;4194;43.408;24.626;2022-10-29T08:48:52;9.10;;;6.77;;
8312;SDS011;4194;43.408;24.626;2022-10-29T08:53:51;11.20;;;7.20;;
8312;SDS011;4194;43.408;24.626;2022-10-29T08:56:32;7.93;;;5.33;;
8312;SDS011;4194;43.408;24.626;2022-10-29T09:01:31;7.77;;;5.60;;
8312;SDS011;4194;43.408;24.626;2022-10-29T09:03:57;6.77;;;5.30;;
8312;SDS011;4194;43.408;24.626;2022-10-29T09:20:59;6.80;;;4.07;;
8312;SDS011;4194;43.408;24.626;2022-10-29T09:23:45;9.97;;;4.00;;
8312;SDS011;4194;43.408;24.626;2022-10-29T09:26:32;11.00;;;4.77;;
8312;SDS011;4194;43.408;24.626;2022-10-29T09:32:58;8.23;;;3.60;;
8312;SDS011;4194;43.408;24.626;2022-10-29T09:35:15;7.80;;;3.17;;
8312;SDS011;4194;43.408;24.626;2022-10-29T09:37:45;8.27;;;2.93;;
8312;SDS011;4194;43.408;24.626;2022-10-29T09:43:05;11.83;;;3.20;;
8312;SDS011;4194;43.408;24.626;2022-10-29T09:45:58;7.07;;;3.57;;
8312;SDS011;4194;43.408;24.626;2022-10-29T09:48:45;6.90;;;3.27;;
8312;SDS011;4194;43.408;24.626;2022-10-29T09:51:36;7.10;;;3.47;;
8312;SDS011;4194;43.408;24.626;2022-10-29T09:54:18;4.67;;;2.77;;
8312;SDS011;4194;43.408;24.626;2022-10-29T09:56:44;6.37;;;2.73;;
8312;SDS011;4194;43.408;24.626;2022-10-29T10:01:46;4.60;;;2.63;;
8312;SDS011;4194;43.408;24.626;2022-10-29T10:04:34;4.17;;;2.70;;
8312;SDS011;4194;43.408;24.626;2022-10-29T10:07:07;4.77;;;2.40;;
8312;SDS011;4194;43.408;24.626;2022-10-29T10:09:51;5.57;;;2.70;;
8312;SDS011;4194;43.408;24.626;2022-10-29T10:12:19;4.17;;;2.60;;
8312;SDS011;4194;43.408;24.626;2022-10-29T10:14:47;5.93;;;2.43;;
8312;SDS011;4194;43.408;24.626;2022-10-29T10:17:12;2.93;;;2.30;;
8312;SDS011;4194;43.408;24.626;2022-10-29T10:19:42;6.83;;;2.07;;
8312;SDS011;4194;43.408;24.626;2022-10-29T10:22:20;2.43;;;1.87;;
8312;SDS011;4194;43.408;24.626;2022-10-29T10:24:48;3.80;;;2.00;;
8312;SDS011;4194;43.408;24.626;2022-10-29T10:27:23;2.83;;;2.27;;
8312;SDS011;4194;43.408;24.626;2022-10-29T10:32:28;4.13;;;2.23;;
8312;SDS011;4194;43.408;24.626;2022-10-29T10:34:54;3.77;;;2.13;;
8312;SDS011;4194;43.408;24.626;2022-10-29T10:37:20;2.33;;;1.97;;
8312;SDS011;4194;43.408;24.626;2022-10-29T10:40:00;3.07;;;2.30;;
8312;SDS011;4194;43.408;24.626;2022-10-29T10:42:31;6.80;;;2.37;;
8312;SDS011;4194;43.408;24.626;2022-10-29T10:45:16;6.07;;;2.37;;
8312;SDS011;4194;43.408;24.626;2022-10-29T10:48:01;5.65;;;3.40;;
8312;SDS011;4194;43.408;24.626;2022-10-29T10:50:32;4.97;;;2.67;;
8312;SDS011;4194;43.408;24.626;2022-10-29T10:53:03;3.00;;;2.07;;
8312;SDS011;4194;43.408;24.626;2022-10-29T10:55:40;2.77;;;2.00;;
8312;SDS011;4194;43.408;24.626;2022-10-29T11:00:54;2.20;;;2.00;;
8312;SDS011;4194;43.408;24.626;2022-10-29T11:03:30;5.77;;;2.37;;
8312;SDS011;4194;43.408;24.626;2022-10-29T11:09:02;4.77;;;2.50;;
8312;SDS011;4194;43.408;24.626;2022-10-29T11:12:00;4.67;;;2.90;;
8312;SDS011;4194;43.408;24.626;2022-10-29T11:18:02;3.57;;;2.60;;
8312;SDS011;4194;43.408;24.626;2022-10-29T11:20:52;6.03;;;3.83;;
8312;SDS011;4194;43.408;24.626;2022-10-29T11:24:09;8.03;;;4.00;;
8312;SDS011;4194;43.408;24.626;2022-10-29T11:26:31;7.70;;;3.10;;
8312;SDS011;4194;43.408;24.626;2022-10-29T11:29:26;6.37;;;3.30;;
8312;SDS011;4194;43.408;24.626;2022-10-29T11:35:03;8.57;;;4.70;;
8312;SDS011;4194;43.408;24.626;2022-10-29T11:40:35;5.63;;;2.83;;
8312;SDS011;4194;43.408;24.626;2022-10-29T11:43:17;3.72;;;2.42;;
8312;SDS011;4194;43.408;24.626;2022-10-29T11:51:30;2.80;;;2.30;;
8312;SDS011;4194;43.408;24.626;2022-10-29T11:54:00;3.22;;;1.75;;
8312;SDS011;4194;43.408;24.626;2022-10-29T11:56:51;2.45;;;2.25;;
8312;SDS011;4194;43.408;24.626;2022-10-29T12:18:35;2.45;;;1.85;;
8312;SDS011;4194;43.408;24.626;2022-10-29T12:21:12;3.13;;;1.98;;
8312;SDS011;4194;43.408;24.626;2022-10-29T12:24:14;2.42;;;1.92;;
8312;SDS011;4194;43.408;24.626;2022-10-29T12:30:22;4.38;;;2.67;;
8312;SDS011;4194;43.408;24.626;2022-10-29T12:35:32;2.75;;;2.38;;
8312;SDS011;4194;43.408;24.626;2022-10-29T12:41:01;3.22;;;1.80;;
8312;SDS011;4194;43.408;24.626;2022-10-29T12:43:31;2.38;;;1.88;;
8312;SDS011;4194;43.408;24.626;2022-10-29T12:57:05;2.38;;;2.03;;
8312;SDS011;4194;43.408;24.626;2022-10-29T12:59:36;1.80;;;1.67;;
8312;SDS011;4194;43.408;24.626;2022-10-29T13:07:34;7.32;;;2.10;;
8312;SDS011;4194;43.408;24.626;2022-10-29T13:13:15;4.30;;;1.80;;
8312;SDS011;4194;43.408;24.626;2022-10-29T13:16:00;2.00;;;1.80;;
8312;SDS011;4194;43.408;24.626;2022-10-29T13:18:43;3.93;;;2.10;;
8312;SDS011;4194;43.408;24.626;2022-10-29T13:24:21;3.55;;;2.00;;
8312;SDS011;4194;43.408;24.626;2022-10-29T13:26:57;5.65;;;1.90;;
8312;SDS011;4194;43.408;24.626;2022-10-29T13:29:42;4.03;;;2.10;;
8312;SDS011;4194;43.408;24.626;2022-10-29T13:32:37;4.38;;;2.15;;
8312;SDS011;4194;43.408;24.626;2022-10-29T13:43:01;5.10;;;2.50;;
8312;SDS011;4194;43.408;24.626;2022-10-29T13:45:30;7.00;;;2.43;;
8312;SDS011;4194;43.408;24.626;2022-10-29T13:47:59;5.80;;;2.43;;
8312;SDS011;4194;43.408;24.626;2022-10-29T13:50:27;2.63;;;2.03;;
8312;SDS011;4194;43.408;24.626;2022-10-29T13:52:57;3.07;;;2.33;;
8312;SDS011;4194;43.408;24.626;2022-10-29T13:55:24;3.53;;;1.97;;
8312;SDS011;4194;43.408;24.626;2022-10-29T13:58:08;3.87;;;2.07;;
8312;SDS011;4194;43.408;24.626;2022-10-29T14:00:39;7.70;;;2.57;;
8312;SDS011;4194;43.408;24.626;2022-10-29T14:05:55;7.20;;;2.17;;
8312;SDS011;4194;43.408;24.626;2022-10-29T14:11:22;5.43;;;2.30;;
8312;SDS011;4194;43.408;24.626;2022-10-29T14:13:58;4.50;;;2.30;;
8312;SDS011;4194;43.408;24.626;2022-10-29T14:16:28;5.47;;;3.00;;
8312;SDS011;4194;43.408;24.626;2022-10-29T14:18:56;5.97;;;3.00;;
8312;SDS011;4194;43.408;24.626;2022-10-29T14:21:24;5.80;;;3.40;;
8312;SDS011;4194;43.408;24.626;2022-10-29T14:24:03;5.00;;;3.00;;
8312;SDS011;4194;43.408;24.626;2022-10-29T14:26:31;8.73;;;2.97;;
8312;SDS011;4194;43.408;24.626;2022-10-29T14:29:11;6.40;;;3.53;;
8312;SDS011;4194;43.408;24.626;2022-10-29T14:31:37;6.30;;;3.10;;
8312;SDS011;4194;43.408;24.626;2022-10-29T14:34:03;6.33;;;3.23;;
8312;SDS011;4194;43.408;24.626;2022-10-29T14:36:35;8.17;;;3.77;;
8312;SDS011;4194;43.408;24.626;2022-10-29T14:39:05;6.77;;;3.33;;
8312;SDS011;4194;43.408;24.626;2022-10-29T14:41:41;5.20;;;3.43;;
8312;SDS011;4194;43.408;24.626;2022-10-29T14:46:34;5.37;;;3.10;;
8312;SDS011;4194;43.408;24.626;2022-10-29T14:49:02;4.37;;;3.23;;
8312;SDS011;4194;43.408;24.626;2022-10-29T14:51:53;9.37;;;3.97;;
8312;SDS011;4194;43.408;24.626;2022-10-29T14:54:25;9.27;;;4.27;;
8312;SDS011;4194;43.408;24.626;2022-10-29T14:56:56;10.20;;;4.20;;
8312;SDS011;4194;43.408;24.626;2022-10-29T14:59:26;10.87;;;5.23;;
8312;SDS011;4194;43.408;24.626;2022-10-29T15:01:54;14.60;;;5.40;;
8312;SDS011;4194;43.408;24.626;2022-10-29T15:04:27;12.13;;;5.43;;
8312;SDS011;4194;43.408;24.626;2022-10-29T15:07:14;11.50;;;5.03;;
8312;SDS011;4194;43.408;24.626;2022-10-29T15:09:47;11.03;;;4.30;;
8312;SDS011;4194;43.408;24.626;2022-10-29T15:14:48;11.23;;;4.63;;
8312;SDS011;4194;43.408;24.626;2022-10-29T15:17:18;7.53;;;3.83;;
8312;SDS011;4194;43.408;24.626;2022-10-29T15:19:53;8.10;;;4.20;;
8312;SDS011;4194;43.408;24.626;2022-10-29T15:22:45;7.23;;;3.97;;
8312;SDS011;4194;43.408;24.626;2022-10-29T15:25:12;6.07;;;4.40;;
8312;SDS011;4194;43.408;24.626;2022-10-29T15:27:46;11.87;;;5.20;;
8312;SDS011;4194;43.408;24.626;2022-10-29T15:30:19;10.03;;;5.77;;
8312;SDS011;4194;43.408;24.626;2022-10-29T15:32:47;12.23;;;5.30;;
8312;SDS011;4194;43.408;24.626;2022-10-29T15:35:17;8.37;;;5.17;;
8312;SDS011;4194;43.408;24.626;2022-10-29T15:37:45;11.07;;;5.47;;
8312;SDS011;4194;43.408;24.626;2022-10-29T15:40:17;12.27;;;4.93;;
8312;SDS011;4194;43.408;24.626;2022-10-29T15:42:44;10.60;;;4.73;;
8312;SDS011;4194;43.408;24.626;2022-10-29T15:47:42;18.93;;;8.00;;
8312;SDS011;4194;43.408;24.626;2022-10-29T15:50:16;19.83;;;9.17;;
8312;SDS011;4194;43.408;24.626;2022-10-29T15:52:50;18.93;;;9.40;;
8312;SDS011;4194;43.408;24.626;2022-10-29T15:55:24;20.27;;;8.80;;
8312;SDS011;4194;43.408;24.626;2022-10-29T15:58:04;23.73;;;9.20;;
8312;SDS011;4194;43.408;24.626;2022-10-29T16:00:41;21.20;;;9.63;;
8312;SDS011;4194;43.408;24.626;2022-10-29T16:03:12;25.33;;;12.50;;
8312;SDS011;4194;43.408;24.626;2022-10-29T16:05:39;26.30;;;12.70;;
8312;SDS011;4194;43.408;24.626;2022-10-29T16:08:21;30.83;;;13.73;;
8312;SDS011;4194;43.408;24.626;2022-10-29T16:10:48;30.40;;;13.37;;
8312;SDS011;4194;43.408;24.626;2022-10-29T16:13:14;27.53;;;14.20;;
8312;SDS011;4194;43.408;24.626;2022-10-29T16:15:42;24.53;;;13.17;;
8312;SDS011;4194;43.408;24.626;2022-10-29T16:18:07;26.23;;;13.13;;
8312;SDS011;4194;43.408;24.626;2022-10-29T16:20:33;34.57;;;14.17;;
8312;SDS011;4194;43.408;24.626;2022-10-29T16:22:59;28.17;;;14.60;;
8312;SDS011;4194;43.408;24.626;2022-10-29T16:25:25;30.17;;;14.13;;
8312;SDS011;4194;43.408;24.626;2022-10-29T16:27:52;39.40;;;15.17;;
8312;SDS011;4194;43.408;24.626;2022-10-29T16:30:18;33.97;;;17.30;;
8312;SDS011;4194;43.408;24.626;2022-10-29T16:32:45;25.17;;;14.23;;
8312;SDS011;4194;43.408;24.626;2022-10-29T16:35:26;23.20;;;12.40;;
8312;SDS011;4194;43.408;24.626;2022-10-29T16:37:53;23.57;;;12.20;;
8312;SDS011;4194;43.408;24.626;2022-10-29T16:40:21;23.63;;;10.90;;
8312;SDS011;4194;43.408;24.626;2022-10-29T16:42:51;20.23;;;9.90;;
8312;SDS011;4194;43.408;24.626;2022-10-29T16:45:21;18.40;;;8.63;;
8312;SDS011;4194;43.408;24.626;2022-10-29T16:47:49;13.17;;;7.43;;
8312;SDS011;4194;43.408;24.626;2022-10-29T16:50:20;14.10;;;7.73;;
8312;SDS011;4194;43.408;24.626;2022-10-29T16:52:47;9.97;;;6.23;;
8312;SDS011;4194;43.408;24.626;2022-10-29T16:55:19;9.43;;;5.50;;
8312;SDS011;4194;43.408;24.626;2022-10-29T16:57:45;10.67;;;5.10;;
8312;SDS011;4194;43.408;24.626;2022-10-29T17:00:11;7.87;;;4.90;;
8312;SDS011;4194;43.408;24.626;2022-10-29T17:02:37;11.90;;;4.80;;
8312;SDS011;4194;43.408;24.626;2022-10-29T17:05:04;7.23;;;4.70;;
8312;SDS011;4194;43.408;24.626;2022-10-29T17:07:31;9.00;;;5.03;;
8312;SDS011;4194;43.408;24.626;2022-10-29T17:09:57;13.43;;;5.23;;
8312;SDS011;4194;43.408;24.626;2022-10-29T17:12:23;12.83;;;5.50;;
8312;SDS011;4194;43.408;24.626;2022-10-29T17:14:48;12.63;;;5.57;;
8312;SDS011;4194;43.408;24.626;2022-10-29T17:17:14;17.47;;;5.90;;
8312;SDS011;4194;43.408;24.626;2022-10-29T17:19:40;10.10;;;6.20;;
8312;SDS011;4194;43.408;24.626;2022-10-29T17:22:05;12.03;;;6.50;;
8312;SDS011;4194;43.408;24.626;2022-10-29T17:24:34;14.23;;;6.00;;
8312;SDS011;4194;43.408;24.626;2022-10-29T17:27:00;13.73;;;6.80;;
8312;SDS011;4194;43.408;24.626;2022-10-29T17:29:26;12.90;;;6.53;;
8312;SDS011;4194;43.408;24.626;2022-10-29T17:31:52;13.23;;;6.43;;
8312;SDS011;4194;43.408;24.626;2022-10-29T17:34:17;9.83;;;5.93;;
8312;SDS011;4194;43.408;24.626;2022-10-29T17:36:43;9.93;;;5.93;;
8312;SDS011;4194;43.408;24.626;2022-10-29T17:39:09;14.50;;;8.03;;
8312;SDS011;4194;43.408;24.626;2022-10-29T17:41:35;13.93;;;8.17;;
8312;SDS011;4194;43.408;24.626;2022-10-29T17:44:01;15.13;;;8.60;;